Sibel J — 5IM270 — position and weather

sailwx.info

Track history (hours):
 
Tides and Currents Weather Stations Pressure Air Temp Water Temp Dewpoint Dewpoint Depression Visibility Wind Speed Wind Dir Waves Ship Positions

Sibel J

Last reported at 2017-Jan-10 02:33 UTC. Time now 2017-Mar-27 08:34 UTC.
Position N 39°30' E 026°02'.
Warning: this ship's position is months out of date.

Length 100 m; draft 3 m.

Type: Cargo ship. MMSI: 677017000.

Date/timePositionNaut miles runAvg speedWind from/ knotsBaromVisibWave heightAir tempDewpointWater temp
2017-Jan-10 02:33N 39°30' E 026°02'17 8.3
2017-Jan-10 00:30N 39°26' E 026°24'10 9.1
2017-Jan-09 23:25N 39°18' E 026°30'9 9.7
2017-Jan-09 22:32N 39°10' E 026°36'10 9.9
2017-Jan-09 21:29N 39°01' E 026°42'8 9.2
2017-Jan-09 20:33N 38°53' E 026°47'9 8.8
2017-Jan-09 19:33N 38°47' E 026°54'2 1.6
2017-Jan-09 18:29N 38°46' E 026°55'0 0.0
2017-Jan-09 17:29N 38°46' E 026°55'0 0.0
2017-Jan-09 16:32N 38°46' E 026°55'0 0.0
2017-Jan-09 15:32N 38°45' E 026°55'0 0.0
2017-Jan-09 14:32N 38°45' E 026°55'0 0.0
2017-Jan-09 13:32N 38°45' E 026°55'0 0.0
2017-Jan-09 12:32N 38°46' E 026°55'0 0.0
2017-Jan-09 11:32N 38°46' E 026°55'0 0.0
2017-Jan-09 10:32N 38°46' E 026°55'0 0.0
2017-Jan-09 09:32N 38°45' E 026°55'0 0.0
2017-Jan-09 08:32N 38°46' E 026°55'0 0.0
2017-Jan-09 07:32N 38°45' E 026°55'0 0.0
2017-Jan-09 06:32N 38°46' E 026°55'0 0.0
2017-Jan-09 05:32N 38°45' E 026°55'0 0.0
2017-Jan-09 04:32N 38°46' E 026°55'0 0.0
2017-Jan-09 03:29N 38°46' E 026°55'0 0.0
2017-Jan-09 02:29N 38°45' E 026°55'0 0.0
2017-Jan-09 01:32N 38°46' E 026°55'0 0.0
2017-Jan-09 00:05N 38°46' E 026°55'0 0.0
2017-Jan-08 13:22N 38°46' E 026°55'0 0.0
2017-Jan-08 12:31N 38°46' E 026°55'0 0.0
2017-Jan-08 11:31N 38°46' E 026°55'0 0.0
2017-Jan-08 10:25N 38°46' E 026°55'0 0.0
2017-Jan-08 09:33N 38°46' E 026°55'3 2.7
2017-Jan-08 08:33N 38°48' E 026°54'0 0.0
2017-Jan-08 07:31N 38°48' E 026°54'0 0.0
2017-Jan-08 06:31N 38°48' E 026°54'0 0.0
2017-Jan-08 05:31N 38°48' E 026°54'0 0.0
2017-Jan-08 04:31N 38°48' E 026°54'0 0.0
2017-Jan-08 03:33N 38°48' E 026°54'0 0.0
2017-Jan-08 02:33N 38°48' E 026°54'0 0.0
2017-Jan-08 01:33N 38°48' E 026°54'0 0.0
2017-Jan-08 00:33N 38°48' E 026°54'0 0.0
2017-Jan-07 23:30N 38°48' E 026°54'0 0.0
2017-Jan-07 21:15N 38°48' E 026°54'0 0.0
2017-Jan-07 13:24N 38°48' E 026°54'0 0.0
2017-Jan-07 12:30N 38°48' E 026°54'0 0.0
2017-Jan-07 11:33N 38°48' E 026°54'0 0.0
2017-Jan-07 10:27N 38°48' E 026°54'0 0.0
2017-Jan-07 09:33N 38°48' E 026°54'0 0.0
2017-Jan-07 08:33N 38°48' E 026°54'0 0.0
2017-Jan-07 07:33N 38°48' E 026°54'0 0.0
2017-Jan-07 06:33N 38°48' E 026°54'0 0.3
2017-Jan-07 05:33N 38°48' E 026°54'0 0.1
2017-Jan-07 04:33N 38°48' E 026°54'0 0.0
2017-Jan-07 03:33N 38°48' E 026°54'0 0.0
2017-Jan-07 02:18N 38°48' E 026°54'0 0.1
2017-Jan-07 01:27N 38°48' E 026°54'0 0.0
2017-Jan-07 00:15N 38°48' E 026°54'0 0.0
2017-Jan-06 02:29N 38°48' E 026°54'0 0.0
2017-Jan-06 01:28N 38°48' E 026°54'0 0.0
2017-Jan-06 00:13N 38°48' E 026°54'0 0.0
2017-Jan-05 23:31N 38°48' E 026°54'0 0.0
2017-Jan-05 22:31N 38°48' E 026°54'0 0.0
2017-Jan-05 21:31N 38°48' E 026°54'0 0.0
2017-Jan-05 20:31N 38°48' E 026°54'0 0.0
2017-Jan-05 19:31N 38°48' E 026°54'0 0.0
2017-Jan-05 18:31N 38°48' E 026°54'0 0.0
2017-Jan-05 17:31N 38°48' E 026°54'0 0.0
2017-Jan-05 16:22N 38°48' E 026°54'  
Track history (hours):
 
Tides and Currents Weather Stations Pressure Air Temp Water Temp Dewpoint Dewpoint Depression Visibility Wind Speed Wind Dir Waves Ship Positions

Sibel J

Last reported at 2017-Jan-10 02:33 UTC. Time now 2017-Mar-27 08:34 UTC.
Position N 39°30' E 026°02'.
Warning: this ship's position is months out of date.

Length 100 m; draft 3 m.

Type: Cargo ship. MMSI: 677017000.

Date/timePositionNaut miles runAvg speedWind from/ knotsBaromVisibWave heightAir tempDewpointWater temp
2017-Jan-10 02:33N 39°30' E 026°02'17 8.3
2017-Jan-10 00:30N 39°26' E 026°24'10 9.1
2017-Jan-09 23:25N 39°18' E 026°30'9 9.7
2017-Jan-09 22:32N 39°10' E 026°36'10 9.9
2017-Jan-09 21:29N 39°01' E 026°42'8 9.2
2017-Jan-09 20:33N 38°53' E 026°47'9 8.8
2017-Jan-09 19:33N 38°47' E 026°54'2 1.6
2017-Jan-09 18:29N 38°46' E 026°55'0 0.0
2017-Jan-09 17:29N 38°46' E 026°55'0 0.0
2017-Jan-09 16:32N 38°46' E 026°55'0 0.0
2017-Jan-09 15:32N 38°45' E 026°55'0 0.0
2017-Jan-09 14:32N 38°45' E 026°55'0 0.0
2017-Jan-09 13:32N 38°45' E 026°55'0 0.0
2017-Jan-09 12:32N 38°46' E 026°55'0 0.0
2017-Jan-09 11:32N 38°46' E 026°55'0 0.0
2017-Jan-09 10:32N 38°46' E 026°55'0 0.0
2017-Jan-09 09:32N 38°45' E 026°55'0 0.0
2017-Jan-09 08:32N 38°46' E 026°55'0 0.0
2017-Jan-09 07:32N 38°45' E 026°55'0 0.0
2017-Jan-09 06:32N 38°46' E 026°55'0 0.0
2017-Jan-09 05:32N 38°45' E 026°55'0 0.0
2017-Jan-09 04:32N 38°46' E 026°55'0 0.0
2017-Jan-09 03:29N 38°46' E 026°55'0 0.0
2017-Jan-09 02:29N 38°45' E 026°55'0 0.0
2017-Jan-09 01:32N 38°46' E 026°55'0 0.0
2017-Jan-09 00:05N 38°46' E 026°55'0 0.0
2017-Jan-08 13:22N 38°46' E 026°55'0 0.0
2017-Jan-08 12:31N 38°46' E 026°55'0 0.0
2017-Jan-08 11:31N 38°46' E 026°55'0 0.0
2017-Jan-08 10:25N 38°46' E 026°55'0 0.0
2017-Jan-08 09:33N 38°46' E 026°55'3 2.7
2017-Jan-08 08:33N 38°48' E 026°54'0 0.0
2017-Jan-08 07:31N 38°48' E 026°54'0 0.0
2017-Jan-08 06:31N 38°48' E 026°54'0 0.0
2017-Jan-08 05:31N 38°48' E 026°54'0 0.0
2017-Jan-08 04:31N 38°48' E 026°54'0 0.0
2017-Jan-08 03:33N 38°48' E 026°54'0 0.0
2017-Jan-08 02:33N 38°48' E 026°54'0 0.0
2017-Jan-08 01:33N 38°48' E 026°54'0 0.0
2017-Jan-08 00:33N 38°48' E 026°54'0 0.0
2017-Jan-07 23:30N 38°48' E 026°54'0 0.0
2017-Jan-07 21:15N 38°48' E 026°54'0 0.0
2017-Jan-07 13:24N 38°48' E 026°54'0 0.0
2017-Jan-07 12:30N 38°48' E 026°54'0 0.0
2017-Jan-07 11:33N 38°48' E 026°54'0 0.0
2017-Jan-07 10:27N 38°48' E 026°54'0 0.0
2017-Jan-07 09:33N 38°48' E 026°54'0 0.0
2017-Jan-07 08:33N 38°48' E 026°54'0 0.0
2017-Jan-07 07:33N 38°48' E 026°54'0 0.0
2017-Jan-07 06:33N 38°48' E 026°54'0 0.3
2017-Jan-07 05:33N 38°48' E 026°54'0 0.1
2017-Jan-07 04:33N 38°48' E 026°54'0 0.0
2017-Jan-07 03:33N 38°48' E 026°54'0 0.0
2017-Jan-07 02:18N 38°48' E 026°54'0 0.1
2017-Jan-07 01:27N 38°48' E 026°54'0 0.0
2017-Jan-07 00:15N 38°48' E 026°54'0 0.0
2017-Jan-06 02:29N 38°48' E 026°54'0 0.0
2017-Jan-06 01:28N 38°48' E 026°54'0 0.0
2017-Jan-06 00:13N 38°48' E 026°54'0 0.0
2017-Jan-05 23:31N 38°48' E 026°54'0 0.0
2017-Jan-05 22:31N 38°48' E 026°54'0 0.0
2017-Jan-05 21:31N 38°48' E 026°54'0 0.0
2017-Jan-05 20:31N 38°48' E 026°54'0 0.0
2017-Jan-05 19:31N 38°48' E 026°54'0 0.0
2017-Jan-05 18:31N 38°48' E 026°54'0 0.0
2017-Jan-05 17:31N 38°48' E 026°54'0 0.0
2017-Jan-05 16:22N 38°48' E 026°54'  

Dump ship's entire track history